Аэропорт: Псков. Псков

ICAO: ULOO

METAR:
2018/09/23 11:00
ULOO 231100Z 22008MPS P5000 FEW033CB BKN046 14/06 Q1003 R19/090070 TEMPO 4000 -TSRA BKN011 BKN020CB RMK QFE748
METAR:
2016/02/06 08:39
TAF 
      AMD TAF 
      AMD ULOO 061936Z 0608/0703 CNL